Pagrindinis puslapis
METAR-TAF:

METAR-TAF

Oro uostai :

Ankona, Italija

platuma: 43-37N, ilguma: 013-22E, Aukštis: 12 m

Dabartinis oras

Ataskaita buvo paskelbta 26 minutes, ne 17:50 UTC
Vėjas 13 kt iš Pietvakarių
Temperatūra 11°C
Drėgmė 54%
Slėgis 999 hPa
Matomumas 10 km arba daugiau

METAR: LIPY 231750Z AUTO 22013KT 9999 FEW220/// 11/02 Q0999

Laikas: 19:16 (18:16 UTC)

Prognozė

Ataskaita buvo paskelbta 1 valandą ir 16 minutes, ne 17:00 UTC
Prognozė galioja nuo 23 metu 18 UTC su 24 metu 18 UTC
Vėjas 12 kt iš Pietvakarių
Matomumas 10 km arba daugiau
Su prošvaistėmis ne aukštis 4000 ft
Laikinai
nuo 24 metu 06 UTC su 24 metu 12 UTC
Matomumas: 4000 m
lietus
Tapsmas
nuo 24 metu 08 UTC su 24 metu 10 UTC
Vėjas 13 kt iš Vakarų/Pietvakarių

TAF: LIPY 231700Z 2318/2418 22012KT 9999 BKN040 TEMPO 2406/2412 4000 SHRA BECMG 2408/2410 24013KT

Orai ataskaitas ir orų prognozės (METAR, TAF).

turimą stotys yra geltonos ir raudonos taškus žemėlapyje.

Perkelti pele per norėdami pamatyti stoties vardą.

Tada spustelėkite, norėdami matyti oro stebėjimo ir prognozės.

Norėdami pakeisti žemėlapį: spustelėkite ant žalios mygtukų su juodo kryžiaus žemyn,; žalią mygtuką su brūkšneliu, jei norite nutolinti; arba žalių rodyklių gretimoms žemėlapius.


METAR-TAF: